createdAt,value
2023-05-23T00:00:52.235Z,12.72
2023-05-23T00:03:23.042Z,12.76
2023-05-23T00:05:51.324Z,12.72
2023-05-23T00:08:18.420Z,12.59
2023-05-23T00:10:45.845Z,12.56
2023-05-23T00:13:15.382Z,12.64
2023-05-23T00:15:42.859Z,12.55
2023-05-23T00:18:11.316Z,12.49
2023-05-23T00:20:40.963Z,12.44
2023-05-23T00:23:09.987Z,12.42
2023-05-23T00:25:37.759Z,12.39
2023-05-23T00:28:05.728Z,12.41
2023-05-23T00:30:34.055Z,12.23
2023-05-23T00:33:01.430Z,12.23
2023-05-23T00:35:28.188Z,12.21
2023-05-23T00:37:55.707Z,12.22
2023-05-23T00:40:23.239Z,12.25
2023-05-23T00:42:50.015Z,12.22
2023-05-23T00:45:17.271Z,12.17
2023-05-23T00:47:44.953Z,12.17
2023-05-23T00:50:12.858Z,12.02
2023-05-23T00:52:39.720Z,11.77
2023-05-23T00:55:08.660Z,11.84
2023-05-23T00:57:39.797Z,11.86
2023-05-23T01:00:10.575Z,11.96
2023-05-23T01:02:44.813Z,11.95
2023-05-23T01:05:14.564Z,11.95
2023-05-23T01:07:41.887Z,12.01
2023-05-23T01:10:09.923Z,12.00
2023-05-23T01:12:55.239Z,11.84
2023-05-23T01:15:26.135Z,11.77
2023-05-23T01:18:20.048Z,11.82
2023-05-23T01:20:54.290Z,11.79
2023-05-23T01:23:36.226Z,11.79
2023-05-23T01:26:19.889Z,11.85
2023-05-23T01:28:48.930Z,11.76
2023-05-23T01:31:17.200Z,11.78
2023-05-23T01:33:44.338Z,11.69
2023-05-23T01:36:13.554Z,11.70
2023-05-23T01:38:40.461Z,11.41
2023-05-23T01:41:07.322Z,11.36
2023-05-23T01:43:34.248Z,11.40
2023-05-23T01:46:01.164Z,11.50
2023-05-23T01:48:29.265Z,11.49
2023-05-23T01:50:57.341Z,11.49
2023-05-23T01:53:24.854Z,11.55
2023-05-23T01:55:52.482Z,11.53
2023-05-23T01:58:19.534Z,11.38
2023-05-23T02:00:46.611Z,11.32
2023-05-23T02:03:13.621Z,11.37
2023-05-23T02:05:40.821Z,11.38
2023-05-23T02:08:07.689Z,11.47
2023-05-23T02:10:34.483Z,11.39
2023-05-23T02:13:01.313Z,11.26
2023-05-23T02:15:28.245Z,11.28
2023-05-23T02:17:55.071Z,11.24
2023-05-23T02:20:21.928Z,11.26
2023-05-23T02:22:48.766Z,11.25
2023-05-23T02:25:15.980Z,11.28
2023-05-23T02:27:42.739Z,11.30
2023-05-23T02:30:09.992Z,11.18
2023-05-23T02:32:37.944Z,11.01
2023-05-23T02:35:06.342Z,11.03
2023-05-23T02:37:33.116Z,11.13
2023-05-23T02:39:59.929Z,11.16
2023-05-23T02:42:26.729Z,11.19
2023-05-23T02:44:53.464Z,11.14
2023-05-23T02:47:20.316Z,11.13
2023-05-23T02:49:47.096Z,11.07
2023-05-23T02:52:14.184Z,11.00
2023-05-23T02:54:41.244Z,10.93
2023-05-23T02:57:08.097Z,10.99
2023-05-23T02:59:34.882Z,10.94
2023-05-23T03:02:01.629Z,10.94
2023-05-23T03:04:29.764Z,10.95
2023-05-23T03:06:56.731Z,10.94
2023-05-23T03:09:23.549Z,10.93
2023-05-23T03:11:51.310Z,10.88
2023-05-23T03:14:18.364Z,10.89
2023-05-23T03:16:45.628Z,10.68
2023-05-23T03:19:12.580Z,10.76
2023-05-23T03:21:39.471Z,10.78
2023-05-23T03:24:07.035Z,10.77
2023-05-23T03:26:33.900Z,10.75
2023-05-23T03:29:00.978Z,10.73
2023-05-23T03:31:27.732Z,10.79
2023-05-23T03:33:54.550Z,10.85
2023-05-23T03:36:22.071Z,10.89
2023-05-23T03:38:48.948Z,10.87
2023-05-23T03:41:15.859Z,10.82
2023-05-23T03:43:42.901Z,10.76
2023-05-23T03:46:09.781Z,10.82
2023-05-23T03:48:36.993Z,10.83
2023-05-23T03:51:03.924Z,10.78
2023-05-23T03:53:30.843Z,10.89
2023-05-23T03:55:57.649Z,10.99
2023-05-23T03:58:24.388Z,11.00
2023-05-23T04:00:53.277Z,11.09
2023-05-23T04:03:20.725Z,11.06
2023-05-23T04:05:47.699Z,11.08
2023-05-23T04:08:14.724Z,11.17
2023-05-23T04:10:41.490Z,11.20
2023-05-23T04:13:09.783Z,11.18
2023-05-23T04:15:36.647Z,11.09
2023-05-23T04:18:03.855Z,11.10
2023-05-23T04:20:30.868Z,11.17
2023-05-23T04:22:57.622Z,11.22
2023-05-23T04:25:24.467Z,11.25
2023-05-23T04:27:51.317Z,11.19
2023-05-23T04:30:18.446Z,11.36
2023-05-23T04:32:45.307Z,11.45
2023-05-23T04:35:14.271Z,11.56
2023-05-23T04:37:42.779Z,11.52
2023-05-23T04:40:09.896Z,11.44
2023-05-23T04:42:36.646Z,11.44
2023-05-23T04:45:04.221Z,11.50
2023-05-23T04:47:37.105Z,11.55
2023-05-23T04:50:05.725Z,11.61
2023-05-23T04:52:34.301Z,11.74
2023-05-23T04:55:01.552Z,11.85
2023-05-23T04:57:29.000Z,11.99
2023-05-23T04:59:57.274Z,12.02
2023-05-23T05:02:24.241Z,12.12
2023-05-23T05:04:51.530Z,12.29
2023-05-23T05:07:18.512Z,12.45
2023-05-23T05:09:45.373Z,12.73
2023-05-23T05:12:12.226Z,13.14
2023-05-23T05:14:39.060Z,13.39
2023-05-23T05:17:05.972Z,13.42
2023-05-23T05:19:33.211Z,13.40
2023-05-23T05:22:00.400Z,13.48
2023-05-23T05:24:28.001Z,13.82
2023-05-23T05:26:55.432Z,14.00
2023-05-23T05:29:22.449Z,14.31
2023-05-23T05:31:49.295Z,14.36
2023-05-23T05:34:16.287Z,14.22
2023-05-23T05:36:46.176Z,14.63
2023-05-23T05:39:14.102Z,15.03
2023-05-23T05:41:41.217Z,14.93
2023-05-23T05:44:08.861Z,14.95
2023-05-23T05:46:35.900Z,15.48
2023-05-23T05:49:02.776Z,15.66
2023-05-23T05:51:29.755Z,15.92
2023-05-23T05:53:56.761Z,15.48
2023-05-23T05:56:23.567Z,15.82
2023-05-23T05:58:50.458Z,16.23
2023-05-23T06:01:17.511Z,16.37
2023-05-23T06:03:44.829Z,16.44
2023-05-23T06:06:12.139Z,16.06
2023-05-23T06:08:39.126Z,16.08
2023-05-23T06:11:05.985Z,16.11
2023-05-23T06:13:32.886Z,16.20
2023-05-23T06:16:00.104Z,16.30
2023-05-23T06:18:27.056Z,16.33
2023-05-23T06:20:53.907Z,16.27
2023-05-23T06:23:20.836Z,16.23
2023-05-23T06:25:47.663Z,16.31
2023-05-23T06:28:14.502Z,15.97
2023-05-23T06:30:41.534Z,16.02
2023-05-23T06:33:08.960Z,16.08
2023-05-23T06:35:35.998Z,15.89
2023-05-23T06:38:03.357Z,16.07
2023-05-23T06:40:30.169Z,16.44
2023-05-23T06:42:57.026Z,16.79
2023-05-23T06:45:23.831Z,16.74
2023-05-23T06:47:50.689Z,16.82
2023-05-23T06:50:20.209Z,16.80
2023-05-23T06:52:47.310Z,16.94
2023-05-23T06:55:18.411Z,17.13
2023-05-23T06:57:45.565Z,17.71
2023-05-23T07:00:14.056Z,17.70
2023-05-23T07:02:41.132Z,17.68
2023-05-23T07:05:08.347Z,17.66
2023-05-23T07:07:35.231Z,17.63
2023-05-23T07:10:02.122Z,17.89
2023-05-23T07:12:29.004Z,18.01
2023-05-23T07:14:55.773Z,18.26
2023-05-23T07:17:22.947Z,18.45
2023-05-23T07:19:49.956Z,18.54
2023-05-23T07:22:16.808Z,18.68
2023-05-23T07:24:43.651Z,18.73
2023-05-23T07:27:10.512Z,18.60
2023-05-23T07:29:37.355Z,18.16
2023-05-23T07:32:04.172Z,18.41
2023-05-23T07:34:31.404Z,18.48
2023-05-23T07:36:58.355Z,18.18
2023-05-23T07:39:25.983Z,18.46
2023-05-23T07:41:53.911Z,18.46
2023-05-23T07:44:23.972Z,18.24
2023-05-23T07:46:51.796Z,18.40
2023-05-23T07:49:18.851Z,18.26
2023-05-23T07:51:45.775Z,18.24
2023-05-23T07:54:14.524Z,18.29
2023-05-23T07:56:43.621Z,18.28
2023-05-23T07:59:10.396Z,18.09
2023-05-23T08:01:37.643Z,17.93
2023-05-23T08:04:04.643Z,18.15
2023-05-23T08:06:32.082Z,18.31
2023-05-23T08:08:58.956Z,18.39
2023-05-23T08:11:27.631Z,18.30
2023-05-23T08:13:54.540Z,18.50
2023-05-23T08:16:21.784Z,18.66
2023-05-23T08:18:48.760Z,19.09
2023-05-23T08:21:15.603Z,19.24
2023-05-23T08:23:42.391Z,19.36
2023-05-23T08:26:09.144Z,19.17
2023-05-23T08:28:36.019Z,18.93
2023-05-23T08:31:02.856Z,19.30
2023-05-23T08:33:29.708Z,19.74
2023-05-23T08:35:56.635Z,19.78
2023-05-23T08:38:24.264Z,19.20
2023-05-23T08:40:54.802Z,19.00
2023-05-23T08:43:21.663Z,18.81
2023-05-23T08:45:50.201Z,18.68
2023-05-23T08:48:17.271Z,18.71
2023-05-23T08:50:47.709Z,18.79
2023-05-23T08:53:20.556Z,18.78
2023-05-23T08:55:55.858Z,18.78
2023-05-23T08:58:24.959Z,18.97
2023-05-23T09:00:53.864Z,18.95
2023-05-23T09:03:21.259Z,18.98
2023-05-23T09:05:49.959Z,18.98
2023-05-23T09:08:17.040Z,19.13
2023-05-23T09:10:43.869Z,19.24
2023-05-23T09:13:10.688Z,19.43
2023-05-23T09:15:37.820Z,19.15
2023-05-23T09:18:04.720Z,19.26
2023-05-23T09:20:31.759Z,19.61
2023-05-23T09:22:58.562Z,19.51
2023-05-23T09:25:25.503Z,19.78
2023-05-23T09:27:54.552Z,19.86
2023-05-23T09:30:21.392Z,19.98
2023-05-23T09:33:01.413Z,20.44
2023-05-23T09:35:30.863Z,20.54
2023-05-23T09:37:59.503Z,20.44
2023-05-23T09:40:33.356Z,20.51
2023-05-23T09:43:04.545Z,20.11
2023-05-23T09:45:32.351Z,20.07
2023-05-23T09:47:59.188Z,20.06
2023-05-23T09:50:32.202Z,20.08
2023-05-23T09:52:59.692Z,20.36
2023-05-23T09:55:26.586Z,20.62
2023-05-23T09:57:56.862Z,20.53
2023-05-23T10:00:25.168Z,20.35
2023-05-23T10:03:11.135Z,20.54
2023-05-23T10:05:48.499Z,20.43
2023-05-23T10:08:20.054Z,20.57
2023-05-23T10:11:21.891Z,20.64
2023-05-23T10:13:50.397Z,20.58
2023-05-23T10:16:37.996Z,20.56
2023-05-23T10:19:19.368Z,20.34
2023-05-23T10:21:51.477Z,20.26
2023-05-23T10:24:19.162Z,20.17
2023-05-23T10:26:47.137Z,20.28
2023-05-23T10:29:14.019Z,20.22
2023-05-23T10:31:41.125Z,20.32
2023-05-23T10:34:55.065Z,20.66
2023-05-23T10:37:47.452Z,21.33
2023-05-23T10:40:22.215Z,21.83
2023-05-23T10:43:07.347Z,22.39
2023-05-23T10:45:42.753Z,21.97
2023-05-23T10:48:28.403Z,21.68
2023-05-23T10:51:08.642Z,21.72
2023-05-23T10:53:39.999Z,21.34
2023-05-23T10:56:08.759Z,21.61
2023-05-23T10:58:41.525Z,21.36
2023-05-23T11:01:09.956Z,21.65
2023-05-23T11:03:50.613Z,21.91
2023-05-23T11:06:38.992Z,22.32
2023-05-23T11:09:09.692Z,22.54
2023-05-23T11:11:52.474Z,22.56
2023-05-23T11:14:34.646Z,22.79
2023-05-23T11:17:16.981Z,23.22
2023-05-23T11:20:17.195Z,23.19
2023-05-23T11:22:53.791Z,23.63
2023-05-23T11:25:20.629Z,23.37
2023-05-23T11:27:48.444Z,23.20
2023-05-23T11:30:17.407Z,23.22
2023-05-23T11:32:56.064Z,23.03
2023-05-23T11:35:23.317Z,22.71
2023-05-23T11:37:50.347Z,22.38
2023-05-23T11:40:39.228Z,22.35
2023-05-23T11:43:11.584Z,22.26
2023-05-23T11:45:39.276Z,21.43
2023-05-23T11:48:12.061Z,21.24
2023-05-23T11:50:50.285Z,21.01
2023-05-23T11:53:20.716Z,20.98
2023-05-23T11:56:00.352Z,21.02
2023-05-23T11:58:30.066Z,20.79
2023-05-23T12:01:02.402Z,20.75
2023-05-23T12:03:29.814Z,20.45
2023-05-23T12:05:56.819Z,19.96
2023-05-23T12:08:23.829Z,19.53
2023-05-23T12:10:52.889Z,19.14
2023-05-23T12:13:20.597Z,18.44
2023-05-23T12:15:47.948Z,17.98
2023-05-23T12:18:20.071Z,17.81
2023-05-23T12:20:50.276Z,17.68
2023-05-23T12:23:23.424Z,17.76
2023-05-23T12:25:52.099Z,17.46
2023-05-23T12:28:19.451Z,17.19
2023-05-23T12:30:46.280Z,17.37
2023-05-23T12:33:13.652Z,17.33
2023-05-23T12:35:45.201Z,17.33
2023-05-23T12:38:16.530Z,17.08
2023-05-23T12:40:43.825Z,17.01
2023-05-23T12:43:11.349Z,16.81
2023-05-23T12:45:38.552Z,16.83
2023-05-23T12:48:08.873Z,16.89
2023-05-23T12:50:36.348Z,17.00
2023-05-23T12:53:03.321Z,16.99
2023-05-23T12:55:30.141Z,17.17
2023-05-23T12:57:56.916Z,17.24
2023-05-23T13:00:23.782Z,17.14
2023-05-23T13:02:50.729Z,17.38
2023-05-23T13:05:17.702Z,17.50
2023-05-23T13:07:44.582Z,17.62
2023-05-23T13:10:11.585Z,17.78
2023-05-23T13:12:38.568Z,17.90
2023-05-23T13:15:06.618Z,17.95
2023-05-23T13:17:33.834Z,17.99
2023-05-23T13:20:01.304Z,18.01
2023-05-23T13:22:29.193Z,18.04
2023-05-23T13:24:56.122Z,17.99
2023-05-23T13:27:22.880Z,18.15
2023-05-23T13:29:49.754Z,18.23
2023-05-23T13:32:16.581Z,18.25
2023-05-23T13:34:43.468Z,18.27
2023-05-23T13:37:10.291Z,18.12
2023-05-23T13:39:37.033Z,18.12
2023-05-23T13:42:03.941Z,18.19
2023-05-23T13:44:30.927Z,18.46
2023-05-23T13:46:58.861Z,18.51
2023-05-23T13:49:25.888Z,18.58
2023-05-23T13:51:52.659Z,18.97
2023-05-23T13:54:19.405Z,19.34
2023-05-23T13:56:46.664Z,19.60
2023-05-23T13:59:13.482Z,19.85
2023-05-23T14:01:40.245Z,19.93
2023-05-23T14:04:07.385Z,19.71
2023-05-23T14:06:34.314Z,19.46
2023-05-23T14:09:01.548Z,19.54
2023-05-23T14:11:28.593Z,19.79
2023-05-23T14:13:58.115Z,19.62
2023-05-23T14:16:24.980Z,19.83
2023-05-23T14:18:51.886Z,19.62
2023-05-23T14:21:18.763Z,19.61
2023-05-23T14:23:45.629Z,19.69
2023-05-23T14:26:12.564Z,19.78
2023-05-23T14:28:39.365Z,19.80
2023-05-23T14:31:06.270Z,19.63
2023-05-23T14:33:33.256Z,19.80
2023-05-23T14:36:00.124Z,20.18
2023-05-23T14:38:27.424Z,20.47
2023-05-23T14:40:54.873Z,20.20
2023-05-23T14:43:21.901Z,19.86
2023-05-23T14:45:48.733Z,19.94
2023-05-23T14:48:15.679Z,19.95
2023-05-23T14:50:42.744Z,19.64
2023-05-23T14:53:09.631Z,19.78
2023-05-23T14:55:36.427Z,19.79
2023-05-23T14:58:03.818Z,19.74
2023-05-23T15:00:30.642Z,19.84
2023-05-23T15:02:57.446Z,19.90
2023-05-23T15:05:25.199Z,19.85
2023-05-23T15:07:51.992Z,19.93
2023-05-23T15:10:18.940Z,20.05
2023-05-23T15:12:45.664Z,20.33
2023-05-23T15:15:12.492Z,20.30
2023-05-23T15:17:39.346Z,20.10
2023-05-23T15:20:07.777Z,20.09
2023-05-23T15:22:39.366Z,20.10
2023-05-23T15:25:07.790Z,20.04
2023-05-23T15:27:34.624Z,20.07
2023-05-23T15:30:01.718Z,19.93
2023-05-23T15:32:28.513Z,19.68
2023-05-23T15:34:55.460Z,19.68
2023-05-23T15:37:22.247Z,19.60
2023-05-23T15:39:49.511Z,19.66
2023-05-23T15:42:16.535Z,19.66
2023-05-23T15:44:43.416Z,19.59
2023-05-23T15:47:10.354Z,19.59
2023-05-23T15:49:37.069Z,19.46
2023-05-23T15:52:04.174Z,19.52
2023-05-23T15:54:30.971Z,19.64
2023-05-23T15:56:57.782Z,19.65
2023-05-23T15:59:24.683Z,19.71
2023-05-23T16:01:51.536Z,19.69
2023-05-23T16:04:18.442Z,19.65
2023-05-23T16:06:45.219Z,19.66
2023-05-23T16:09:12.169Z,19.63
2023-05-23T16:11:38.891Z,19.62
2023-05-23T16:14:06.369Z,19.55
2023-05-23T16:16:33.259Z,19.51
2023-05-23T16:19:00.239Z,19.46
2023-05-23T16:21:27.041Z,19.48
2023-05-23T16:23:53.885Z,19.52
2023-05-23T16:26:21.104Z,19.57
2023-05-23T16:28:48.000Z,19.61
2023-05-23T16:31:16.796Z,19.68
2023-05-23T16:33:44.627Z,19.66
2023-05-23T16:36:11.446Z,19.58
2023-05-23T16:38:38.212Z,19.53
2023-05-23T16:41:05.165Z,19.54
2023-05-23T16:43:32.022Z,19.49
2023-05-23T16:45:58.848Z,19.52
2023-05-23T16:48:25.887Z,19.48
2023-05-23T16:50:57.356Z,19.47
2023-05-23T16:53:24.265Z,19.50
2023-05-23T16:55:51.083Z,19.46
2023-05-23T16:58:20.177Z,19.31
2023-05-23T17:00:48.174Z,19.42
2023-05-23T17:03:15.033Z,19.29
2023-05-23T17:05:42.154Z,19.24
2023-05-23T17:08:09.291Z,19.11
2023-05-23T17:10:36.985Z,19.15
2023-05-23T17:13:03.833Z,19.15
2023-05-23T17:15:30.820Z,19.14
2023-05-23T17:17:57.705Z,18.92
2023-05-23T17:20:27.128Z,18.96
2023-05-23T17:22:54.039Z,18.96
2023-05-23T17:25:21.086Z,18.84
2023-05-23T17:27:47.956Z,18.76
2023-05-23T17:30:18.493Z,18.79
2023-05-23T17:32:46.753Z,18.75
2023-05-23T17:35:13.834Z,18.62
2023-05-23T17:37:43.778Z,18.57
2023-05-23T17:40:14.137Z,18.63
2023-05-23T17:42:41.767Z,18.59
2023-05-23T17:45:12.327Z,18.39
2023-05-23T17:47:39.497Z,18.26
2023-05-23T17:50:07.647Z,18.10
2023-05-23T17:52:35.058Z,18.05
2023-05-23T17:55:02.139Z,18.07
2023-05-23T17:57:31.171Z,18.13
2023-05-23T17:59:59.549Z,18.17
2023-05-23T18:02:27.348Z,18.09
2023-05-23T18:04:55.101Z,17.96
2023-05-23T18:07:22.540Z,17.73
2023-05-23T18:09:50.368Z,17.65
2023-05-23T18:12:17.868Z,17.51
2023-05-23T18:14:45.711Z,17.38
2023-05-23T18:17:13.024Z,17.37
2023-05-23T18:19:40.110Z,17.33
2023-05-23T18:22:06.965Z,17.20
2023-05-23T18:24:33.751Z,17.01
2023-05-23T18:27:00.884Z,17.04
2023-05-23T18:29:27.678Z,16.96
2023-05-23T18:31:54.553Z,16.85
2023-05-23T18:34:21.808Z,16.79
2023-05-23T18:36:48.721Z,16.69
2023-05-23T18:39:16.571Z,16.63
2023-05-23T18:41:43.369Z,16.68
2023-05-23T18:44:10.128Z,16.60
2023-05-23T18:46:37.293Z,16.58
2023-05-23T18:49:05.186Z,16.45
2023-05-23T18:51:33.586Z,16.48
2023-05-23T18:54:00.444Z,16.51
2023-05-23T18:56:27.601Z,16.51
2023-05-23T18:58:54.472Z,16.46
2023-05-23T19:01:21.649Z,16.42
2023-05-23T19:03:49.281Z,16.32
2023-05-23T19:06:16.748Z,16.35
2023-05-23T19:08:43.575Z,16.28
2023-05-23T19:11:10.958Z,16.22
2023-05-23T19:13:38.162Z,16.13
2023-05-23T19:16:05.287Z,16.25
2023-05-23T19:18:32.308Z,16.24
2023-05-23T19:20:59.137Z,16.21
2023-05-23T19:23:26.194Z,16.16
2023-05-23T19:25:52.990Z,16.06
2023-05-23T19:28:19.815Z,15.94
2023-05-23T19:30:46.560Z,15.92
2023-05-23T19:33:14.778Z,16.04
2023-05-23T19:35:43.750Z,15.92
2023-05-23T19:38:11.221Z,16.02
2023-05-23T19:40:38.025Z,16.05
2023-05-23T19:43:04.808Z,16.03
2023-05-23T19:45:31.761Z,16.00
2023-05-23T19:47:58.630Z,15.97
2023-05-23T19:50:25.585Z,15.95
2023-05-23T19:52:52.538Z,15.71
2023-05-23T19:55:19.734Z,15.61
2023-05-23T19:57:46.691Z,15.61
2023-05-23T20:00:15.097Z,15.49
2023-05-23T20:02:42.842Z,15.29
2023-05-23T20:05:09.975Z,15.35
2023-05-23T20:07:36.768Z,15.32
2023-05-23T20:10:04.236Z,15.37
2023-05-23T20:12:31.078Z,15.44
2023-05-23T20:14:57.932Z,15.47
2023-05-23T20:17:24.705Z,15.44
2023-05-23T20:19:51.529Z,15.46
2023-05-23T20:22:18.350Z,15.50
2023-05-23T20:24:45.062Z,15.46
2023-05-23T20:27:11.870Z,15.55
2023-05-23T20:29:38.550Z,15.35
2023-05-23T20:32:06.121Z,15.28
2023-05-23T20:34:32.913Z,15.26
2023-05-23T20:36:59.662Z,15.22
2023-05-23T20:39:26.371Z,15.34
2023-05-23T20:41:53.796Z,15.36
2023-05-23T20:44:20.543Z,15.35
2023-05-23T20:46:47.660Z,15.30
2023-05-23T20:49:15.827Z,15.35
2023-05-23T20:51:43.447Z,15.39
2023-05-23T20:54:10.188Z,15.33
2023-05-23T20:56:37.062Z,15.21
2023-05-23T20:59:03.871Z,15.21
2023-05-23T21:01:31.149Z,15.14
2023-05-23T21:03:58.080Z,15.17
2023-05-23T21:06:24.820Z,15.19
2023-05-23T21:08:51.695Z,15.07
2023-05-23T21:11:18.508Z,15.11
2023-05-23T21:13:46.581Z,15.03
2023-05-23T21:16:14.739Z,15.06
2023-05-23T21:18:41.873Z,15.13
2023-05-23T21:21:08.616Z,15.09
2023-05-23T21:23:35.763Z,15.13
2023-05-23T21:26:02.771Z,15.14
2023-05-23T21:28:29.537Z,15.12
2023-05-23T21:30:56.774Z,15.11
2023-05-23T21:33:23.588Z,15.17
2023-05-23T21:35:51.148Z,15.19
2023-05-23T21:38:17.995Z,15.22
2023-05-23T21:40:45.002Z,15.17
2023-05-23T21:43:11.845Z,15.15
2023-05-23T21:45:38.590Z,15.13
2023-05-23T21:48:05.522Z,15.12
2023-05-23T21:50:32.348Z,15.03
2023-05-23T21:52:59.170Z,14.98
2023-05-23T21:55:27.411Z,15.05
2023-05-23T21:57:57.249Z,15.04
2023-05-23T22:00:24.057Z,15.03
2023-05-23T22:02:50.926Z,14.93
2023-05-23T22:05:17.753Z,15.05
2023-05-23T22:07:44.602Z,15.10
2023-05-23T22:10:11.837Z,15.03
2023-05-23T22:12:38.919Z,15.11
2023-05-23T22:15:08.383Z,15.10
2023-05-23T22:17:35.340Z,15.06
2023-05-23T22:20:05.401Z,15.11
2023-05-23T22:22:32.254Z,15.11
2023-05-23T22:24:59.051Z,15.08
2023-05-23T22:27:25.907Z,15.05
2023-05-23T22:29:52.758Z,15.01
2023-05-23T22:32:19.495Z,14.95
2023-05-23T22:34:46.363Z,15.04
2023-05-23T22:37:13.087Z,14.97
2023-05-23T22:39:39.803Z,14.99
2023-05-23T22:42:06.586Z,15.02
2023-05-23T22:44:33.481Z,15.02
2023-05-23T22:47:00.340Z,15.02
2023-05-23T22:49:30.212Z,14.94
2023-05-23T22:51:57.807Z,14.98
2023-05-23T22:54:24.507Z,15.00
2023-05-23T22:56:51.317Z,14.96
2023-05-23T22:59:18.014Z,14.95
2023-05-23T23:01:44.852Z,15.04
2023-05-23T23:04:12.205Z,14.98
2023-05-23T23:06:39.032Z,15.07
2023-05-23T23:09:05.934Z,15.10
2023-05-23T23:11:32.720Z,15.03
2023-05-23T23:14:00.148Z,14.93
2023-05-23T23:16:27.191Z,14.95
2023-05-23T23:18:53.974Z,14.95
2023-05-23T23:21:21.174Z,14.90
2023-05-23T23:23:47.974Z,14.97
2023-05-23T23:26:14.665Z,14.87
2023-05-23T23:28:41.478Z,14.92
2023-05-23T23:31:08.329Z,14.87
2023-05-23T23:33:35.186Z,14.85
2023-05-23T23:36:02.122Z,14.88
2023-05-23T23:38:28.888Z,14.88
2023-05-23T23:40:55.659Z,14.88
2023-05-23T23:43:22.674Z,14.87
2023-05-23T23:45:49.417Z,14.87
2023-05-23T23:48:16.238Z,14.82
2023-05-23T23:50:43.320Z,14.88
2023-05-23T23:53:10.298Z,14.84
2023-05-23T23:55:37.064Z,14.90
2023-05-23T23:58:03.880Z,14.89
